createdAt,value
2018-07-31T00:00:01.867Z,24.24
2018-07-31T00:02:30.345Z,24.23
2018-07-31T00:04:58.899Z,24.12
2018-07-31T00:07:27.408Z,24.03
2018-07-31T00:09:55.882Z,23.97
2018-07-31T00:12:24.352Z,23.85
2018-07-31T00:14:52.886Z,23.71
2018-07-31T00:17:21.323Z,23.76
2018-07-31T00:19:49.786Z,23.80
2018-07-31T00:22:18.336Z,23.85
2018-07-31T00:24:46.831Z,23.80
2018-07-31T00:27:15.580Z,23.74
2018-07-31T00:29:44.010Z,23.78
2018-07-31T00:32:13.838Z,23.64
2018-07-31T00:34:42.538Z,23.74
2018-07-31T00:37:11.245Z,23.60
2018-07-31T00:39:39.697Z,23.57
2018-07-31T00:42:08.310Z,23.47
2018-07-31T00:44:36.767Z,23.50
2018-07-31T00:47:05.377Z,23.54
2018-07-31T00:49:33.863Z,23.47
2018-07-31T00:52:02.328Z,23.30
2018-07-31T00:54:31.086Z,23.47
2018-07-31T00:56:59.537Z,23.28
2018-07-31T00:59:28.037Z,23.28
2018-07-31T01:01:56.501Z,23.27
2018-07-31T01:04:24.937Z,23.30
2018-07-31T01:06:53.443Z,23.09
2018-07-31T01:09:21.980Z,22.96
2018-07-31T01:11:50.444Z,22.96
2018-07-31T01:14:18.960Z,23.00
2018-07-31T01:16:47.463Z,23.10
2018-07-31T01:19:15.885Z,23.18
2018-07-31T01:21:44.431Z,23.20
2018-07-31T01:24:12.924Z,23.24
2018-07-31T01:26:41.428Z,23.28
2018-07-31T01:29:10.036Z,23.28
2018-07-31T01:31:38.600Z,23.24
2018-07-31T01:34:07.111Z,23.09
2018-07-31T01:36:35.574Z,23.09
2018-07-31T01:39:05.138Z,23.04
2018-07-31T01:41:33.566Z,22.97
2018-07-31T01:44:02.185Z,23.03
2018-07-31T01:46:30.649Z,22.96
2018-07-31T01:48:59.283Z,23.04
2018-07-31T01:51:27.737Z,22.93
2018-07-31T01:53:56.223Z,22.71
2018-07-31T01:56:25.003Z,22.70
2018-07-31T01:58:53.447Z,22.77
2018-07-31T02:01:21.967Z,22.71
2018-07-31T02:03:50.612Z,22.72
2018-07-31T02:06:23.411Z,22.73
2018-07-31T02:08:51.870Z,22.52
2018-07-31T02:11:20.349Z,22.55
2018-07-31T02:13:48.803Z,22.69
2018-07-31T02:16:18.271Z,22.70
2018-07-31T02:18:46.742Z,22.69
2018-07-31T02:21:15.271Z,22.53
2018-07-31T02:23:43.734Z,22.53
2018-07-31T02:26:12.200Z,22.39
2018-07-31T02:28:40.716Z,22.55
2018-07-31T02:31:09.153Z,22.58
2018-07-31T02:33:37.631Z,22.51
2018-07-31T02:36:06.114Z,22.47
2018-07-31T02:38:34.567Z,22.51
2018-07-31T02:41:03.282Z,22.12
2018-07-31T02:43:31.695Z,22.30
2018-07-31T02:46:00.315Z,22.04
2018-07-31T02:48:28.844Z,21.98
2018-07-31T02:50:57.331Z,22.15
2018-07-31T02:53:26.036Z,22.28
2018-07-31T02:55:54.460Z,23.88
2018-07-31T02:58:23.012Z,24.57
2018-07-31T03:00:51.418Z,24.87
2018-07-31T03:03:19.867Z,24.93
2018-07-31T03:05:48.357Z,24.74
2018-07-31T03:08:16.857Z,24.85
2018-07-31T03:10:45.299Z,24.96
2018-07-31T03:13:13.729Z,25.17
2018-07-31T03:15:42.417Z,24.81
2018-07-31T03:18:10.911Z,24.26
2018-07-31T03:20:39.333Z,24.00
2018-07-31T03:23:07.811Z,24.61
2018-07-31T03:25:36.292Z,24.40
2018-07-31T03:28:04.765Z,24.40
2018-07-31T03:30:33.230Z,23.39
2018-07-31T03:33:01.658Z,24.62
2018-07-31T03:35:30.075Z,24.76
2018-07-31T03:37:58.591Z,24.11
2018-07-31T03:40:27.044Z,23.09
2018-07-31T03:42:55.922Z,22.93
2018-07-31T03:45:24.386Z,22.71
2018-07-31T03:47:52.913Z,22.55
2018-07-31T03:50:21.391Z,22.41
2018-07-31T03:52:49.805Z,22.41
2018-07-31T03:55:18.249Z,22.13
2018-07-31T03:57:46.711Z,21.80
2018-07-31T04:00:15.839Z,21.76
2018-07-31T04:02:44.444Z,21.92
2018-07-31T04:05:13.136Z,22.06
2018-07-31T04:07:41.607Z,22.22
2018-07-31T04:10:10.033Z,22.31
2018-07-31T04:12:38.692Z,22.29
2018-07-31T04:15:07.122Z,22.27
2018-07-31T04:17:35.590Z,22.39
2018-07-31T04:20:04.161Z,22.56
2018-07-31T04:22:33.132Z,22.52
2018-07-31T04:25:01.859Z,22.59
2018-07-31T04:27:30.723Z,22.43
2018-07-31T04:29:59.189Z,22.66
2018-07-31T04:32:27.709Z,22.76
2018-07-31T04:34:56.513Z,22.85
2018-07-31T04:37:24.978Z,22.84
2018-07-31T04:39:53.728Z,23.02
2018-07-31T04:42:22.255Z,23.16
2018-07-31T04:44:50.688Z,23.10
2018-07-31T04:47:19.172Z,23.33
2018-07-31T04:49:47.651Z,23.18
2018-07-31T04:52:16.116Z,23.40
2018-07-31T04:54:44.792Z,23.40
2018-07-31T04:57:13.206Z,23.32
2018-07-31T04:59:41.918Z,23.30
2018-07-31T05:02:10.375Z,23.41
2018-07-31T05:04:38.818Z,23.52
2018-07-31T05:07:07.339Z,23.44
2018-07-31T05:09:35.804Z,23.75
2018-07-31T05:12:04.524Z,23.65
2018-07-31T05:14:33.008Z,23.85
2018-07-31T05:17:01.464Z,23.79
2018-07-31T05:19:29.933Z,24.10
2018-07-31T05:21:58.384Z,24.17
2018-07-31T05:24:26.863Z,24.17
2018-07-31T05:26:55.305Z,24.22
2018-07-31T05:29:23.781Z,24.05
2018-07-31T05:31:52.264Z,24.19
2018-07-31T05:34:20.698Z,24.41
2018-07-31T05:36:49.256Z,24.39
2018-07-31T05:39:17.784Z,24.44
2018-07-31T05:41:46.255Z,24.40
2018-07-31T05:44:14.711Z,24.63
2018-07-31T05:46:43.225Z,24.84
2018-07-31T05:49:11.682Z,24.95
2018-07-31T05:51:40.121Z,24.92
2018-07-31T05:57:07.827Z,25.13
2018-07-31T05:59:36.280Z,25.20
2018-07-31T06:02:04.888Z,25.04
2018-07-31T06:04:33.385Z,24.97
2018-07-31T06:07:01.828Z,25.01
2018-07-31T06:09:30.266Z,25.05
2018-07-31T06:11:58.699Z,25.21
2018-07-31T06:14:27.383Z,25.33
2018-07-31T06:16:55.839Z,25.39
2018-07-31T06:19:24.261Z,25.41
2018-07-31T06:21:53.093Z,25.66
2018-07-31T06:24:21.503Z,25.79
2018-07-31T06:26:50.343Z,25.76
2018-07-31T06:29:18.813Z,25.58
2018-07-31T06:31:47.252Z,25.64
2018-07-31T06:34:15.686Z,25.81
2018-07-31T06:36:44.119Z,26.01
2018-07-31T06:39:12.735Z,25.39
2018-07-31T06:41:41.186Z,25.76
2018-07-31T06:44:09.655Z,25.48
2018-07-31T06:46:38.656Z,25.85
2018-07-31T06:49:07.174Z,26.16
2018-07-31T06:51:35.868Z,26.71
2018-07-31T06:54:04.385Z,26.60
2018-07-31T06:56:32.944Z,26.50
2018-07-31T06:59:01.407Z,26.86
2018-07-31T07:01:29.889Z,26.39
2018-07-31T07:03:58.600Z,26.76
2018-07-31T07:06:27.047Z,26.79
2018-07-31T07:08:55.516Z,26.64
2018-07-31T07:11:23.967Z,26.95
2018-07-31T07:13:52.437Z,26.46
2018-07-31T07:16:20.930Z,27.35
2018-07-31T07:18:49.927Z,27.00
2018-07-31T07:21:18.404Z,27.05
2018-07-31T07:23:46.849Z,26.58
2018-07-31T07:26:15.517Z,27.30
2018-07-31T07:28:43.930Z,28.00
2018-07-31T07:31:12.344Z,28.16
2018-07-31T07:33:40.785Z,28.23
2018-07-31T07:36:09.210Z,27.88
2018-07-31T07:38:38.576Z,28.26
2018-07-31T07:41:07.496Z,28.34
2018-07-31T07:43:35.944Z,28.25
2018-07-31T07:46:04.593Z,28.83
2018-07-31T07:48:33.035Z,28.91
2018-07-31T07:51:01.519Z,29.05
2018-07-31T07:53:30.068Z,29.24
2018-07-31T07:55:58.456Z,29.05
2018-07-31T07:58:27.094Z,28.48
2018-07-31T08:00:55.777Z,28.61
2018-07-31T08:03:24.250Z,28.39
2018-07-31T08:05:53.268Z,28.85
2018-07-31T08:08:21.844Z,29.19
2018-07-31T08:10:50.527Z,29.70
2018-07-31T08:13:19.207Z,29.60
2018-07-31T08:15:47.679Z,29.46
2018-07-31T08:18:16.130Z,29.03
2018-07-31T08:20:44.594Z,29.31
2018-07-31T08:23:13.376Z,29.80
2018-07-31T08:25:42.105Z,29.80
2018-07-31T08:28:10.772Z,30.14
2018-07-31T08:30:39.210Z,30.33
2018-07-31T08:33:07.803Z,30.18
2018-07-31T08:35:36.286Z,30.08
2018-07-31T08:38:04.855Z,30.56
2018-07-31T08:40:33.404Z,30.48
2018-07-31T08:43:01.904Z,30.80
2018-07-31T08:45:30.711Z,30.80
2018-07-31T08:47:59.165Z,30.29
2018-07-31T08:50:27.724Z,29.78
2018-07-31T08:52:56.235Z,30.40
2018-07-31T08:55:26.264Z,30.43
2018-07-31T08:57:54.762Z,31.16
2018-07-31T09:00:23.246Z,31.18
2018-07-31T09:02:51.780Z,31.59
2018-07-31T09:05:20.399Z,31.16
2018-07-31T09:07:48.808Z,31.42
2018-07-31T09:10:17.503Z,31.20
2018-07-31T09:12:46.203Z,31.65
2018-07-31T09:15:15.071Z,31.33
2018-07-31T09:17:43.510Z,31.80
2018-07-31T09:20:11.916Z,31.60
2018-07-31T09:22:40.347Z,32.26
2018-07-31T09:25:09.055Z,31.75
2018-07-31T09:27:37.518Z,31.51
2018-07-31T09:30:06.674Z,31.92
2018-07-31T09:32:40.470Z,31.82
2018-07-31T09:35:08.919Z,31.99
2018-07-31T09:37:37.732Z,31.92
2018-07-31T09:40:06.193Z,32.13
2018-07-31T09:42:34.784Z,31.89
2018-07-31T09:45:03.272Z,31.84
2018-07-31T09:47:31.704Z,32.02
2018-07-31T09:50:00.136Z,32.74
2018-07-31T09:52:28.587Z,32.72
2018-07-31T09:54:57.058Z,33.24
2018-07-31T09:57:25.724Z,33.56
2018-07-31T09:59:54.376Z,33.45
2018-07-31T10:02:23.062Z,33.65
2018-07-31T10:04:51.498Z,33.50
2018-07-31T10:07:20.134Z,33.59
2018-07-31T10:10:18.999Z,34.09
2018-07-31T10:12:47.427Z,33.95
2018-07-31T10:15:15.839Z,33.87
2018-07-31T10:17:44.380Z,33.39
2018-07-31T10:20:12.764Z,33.33
2018-07-31T10:22:41.204Z,33.42
2018-07-31T10:25:09.607Z,33.60
2018-07-31T10:27:38.455Z,33.72
2018-07-31T10:30:07.671Z,34.11
2018-07-31T10:32:36.182Z,33.93
2018-07-31T10:35:05.159Z,33.93
2018-07-31T10:37:33.602Z,34.49
2018-07-31T10:40:02.077Z,34.70
2018-07-31T10:42:30.528Z,33.29
2018-07-31T10:44:59.111Z,34.73
2018-07-31T10:47:27.756Z,34.06
2018-07-31T10:49:56.422Z,33.93
2018-07-31T10:52:25.229Z,34.08
2018-07-31T10:54:53.652Z,34.78
2018-07-31T10:57:22.079Z,34.28
2018-07-31T10:59:50.638Z,33.93
2018-07-31T11:02:19.000Z,34.67
2018-07-31T11:04:47.483Z,35.70
2018-07-31T11:07:15.903Z,35.82
2018-07-31T11:09:44.388Z,36.25
2018-07-31T11:12:13.263Z,35.11
2018-07-31T11:14:41.741Z,34.83
2018-07-31T11:17:10.239Z,34.91
2018-07-31T11:19:38.681Z,35.04
2018-07-31T11:22:07.169Z,35.58
2018-07-31T11:24:35.647Z,35.47
2018-07-31T11:27:04.175Z,36.61
2018-07-31T11:30:35.591Z,36.00
2018-07-31T11:33:04.124Z,35.73
2018-07-31T11:35:32.590Z,35.81
2018-07-31T11:38:01.118Z,36.16
2018-07-31T11:40:29.587Z,36.49
2018-07-31T11:42:58.043Z,37.45
2018-07-31T11:45:26.525Z,36.54
2018-07-31T11:47:54.948Z,37.41
2018-07-31T11:50:23.356Z,37.03
2018-07-31T11:52:52.958Z,36.61
2018-07-31T11:55:21.392Z,37.81
2018-07-31T11:57:50.044Z,35.71
2018-07-31T12:00:18.678Z,35.43
2018-07-31T12:02:47.143Z,36.01
2018-07-31T12:05:15.786Z,36.51
2018-07-31T12:07:44.262Z,38.76
2018-07-31T12:10:12.745Z,39.44
2018-07-31T12:12:41.149Z,39.40
2018-07-31T12:15:09.609Z,38.14
2018-07-31T12:17:38.098Z,40.69
2018-07-31T12:20:06.792Z,39.72
2018-07-31T12:22:35.258Z,38.29
2018-07-31T12:25:03.732Z,38.61
2018-07-31T12:27:33.144Z,39.27
2018-07-31T12:30:01.590Z,39.72
2018-07-31T12:32:30.053Z,41.68
2018-07-31T12:34:58.508Z,37.35
2018-07-31T12:37:26.963Z,37.39
2018-07-31T12:39:55.417Z,39.45
2018-07-31T12:42:38.710Z,39.24
2018-07-31T12:45:07.235Z,36.80
2018-07-31T12:47:36.509Z,38.53
2018-07-31T12:50:05.572Z,38.39
2018-07-31T12:52:34.056Z,39.17
2018-07-31T12:55:02.695Z,39.17
2018-07-31T12:57:31.675Z,38.68
2018-07-31T13:00:00.163Z,37.93
2018-07-31T13:02:28.600Z,40.16
2018-07-31T13:04:57.223Z,41.35
2018-07-31T13:07:25.672Z,40.16
2018-07-31T13:09:54.138Z,39.90
2018-07-31T13:12:22.557Z,39.70
2018-07-31T13:14:51.066Z,40.62
2018-07-31T13:17:19.464Z,40.58
2018-07-31T13:19:48.078Z,39.76
2018-07-31T13:22:16.538Z,39.70
2018-07-31T13:24:44.956Z,39.19
2018-07-31T13:27:13.402Z,39.62
2018-07-31T13:29:41.831Z,39.12
2018-07-31T13:32:10.636Z,40.88
2018-07-31T13:34:39.086Z,43.00
2018-07-31T13:37:08.009Z,40.46
2018-07-31T13:39:36.433Z,40.04
2018-07-31T13:42:05.081Z,39.33
2018-07-31T13:44:33.775Z,38.88
2018-07-31T13:47:02.167Z,40.41
2018-07-31T13:49:30.646Z,39.99
2018-07-31T13:51:59.119Z,40.42
2018-07-31T13:54:27.589Z,40.12
2018-07-31T13:56:56.046Z,38.98
2018-07-31T13:59:24.511Z,39.09
2018-07-31T14:01:53.046Z,40.50
2018-07-31T14:04:21.768Z,39.45
2018-07-31T14:06:50.413Z,40.11
2018-07-31T14:09:18.818Z,39.11
2018-07-31T14:11:47.504Z,39.97
2018-07-31T14:14:15.983Z,39.54
2018-07-31T14:16:44.415Z,38.95
2018-07-31T14:19:12.865Z,40.40
2018-07-31T14:21:41.355Z,40.60
2018-07-31T14:24:09.804Z,40.08
2018-07-31T14:26:38.242Z,40.09
2018-07-31T14:29:06.687Z,40.38
2018-07-31T14:31:35.138Z,39.48
2018-07-31T14:34:03.700Z,39.41
2018-07-31T14:36:32.158Z,39.81
2018-07-31T14:39:00.603Z,39.11
2018-07-31T14:41:43.529Z,39.41
2018-07-31T14:44:12.036Z,39.79
2018-07-31T14:46:40.517Z,39.52
2018-07-31T14:49:09.167Z,39.79
2018-07-31T14:51:37.666Z,40.51
2018-07-31T14:54:08.088Z,41.30
2018-07-31T14:56:36.507Z,40.48
2018-07-31T14:59:05.301Z,38.96
2018-07-31T15:01:33.782Z,40.34
2018-07-31T15:04:02.578Z,39.61
2018-07-31T15:06:31.028Z,38.72
2018-07-31T15:08:59.648Z,39.30
2018-07-31T15:11:28.066Z,39.60
2018-07-31T15:13:56.508Z,39.43
2018-07-31T15:16:25.099Z,40.45
2018-07-31T15:18:53.512Z,40.13
2018-07-31T15:21:22.049Z,40.14
2018-07-31T15:23:50.504Z,39.02
2018-07-31T15:26:19.219Z,39.57
2018-07-31T15:28:47.672Z,40.12
2018-07-31T15:31:16.174Z,39.71
2018-07-31T15:33:44.709Z,40.78
2018-07-31T15:36:13.127Z,39.78
2018-07-31T15:38:41.560Z,39.39
2018-07-31T15:41:10.056Z,39.74
2018-07-31T15:43:38.495Z,40.66
2018-07-31T15:46:07.012Z,40.67
2018-07-31T15:48:35.763Z,40.51
2018-07-31T15:51:04.284Z,40.43
2018-07-31T15:53:32.720Z,39.86
2018-07-31T15:56:01.189Z,40.08
2018-07-31T15:58:29.722Z,39.11
2018-07-31T16:00:58.239Z,39.40
2018-07-31T16:03:26.774Z,38.69
2018-07-31T16:05:55.228Z,39.57
2018-07-31T16:08:23.669Z,40.53
2018-07-31T16:10:52.262Z,38.92
2018-07-31T16:13:20.705Z,39.78
2018-07-31T16:15:49.377Z,39.15
2018-07-31T16:18:17.859Z,39.80
2018-07-31T16:20:46.336Z,40.54
2018-07-31T16:23:14.885Z,39.68
2018-07-31T16:25:43.457Z,41.25
2018-07-31T16:28:12.073Z,40.73
2018-07-31T16:30:40.523Z,39.90
2018-07-31T16:33:09.016Z,40.36
2018-07-31T16:35:37.527Z,40.26
2018-07-31T16:38:06.347Z,41.03
2018-07-31T16:40:34.811Z,40.23
2018-07-31T16:43:03.313Z,39.68
2018-07-31T16:45:31.859Z,40.68
2018-07-31T16:48:00.355Z,41.43
2018-07-31T16:50:28.864Z,40.36
2018-07-31T16:52:57.299Z,39.76
2018-07-31T16:55:25.687Z,39.96
2018-07-31T16:57:54.139Z,39.84
2018-07-31T17:00:22.636Z,40.16
2018-07-31T17:02:51.136Z,39.33
2018-07-31T17:05:19.687Z,39.62
2018-07-31T17:07:48.225Z,39.84
2018-07-31T17:10:16.643Z,40.04
2018-07-31T17:12:45.071Z,40.04
2018-07-31T17:15:13.507Z,40.76
2018-07-31T17:17:42.304Z,40.76
2018-07-31T17:20:11.052Z,40.16
2018-07-31T17:22:39.646Z,40.43
2018-07-31T17:25:08.087Z,39.91
2018-07-31T17:27:36.558Z,41.01
2018-07-31T17:30:05.800Z,39.71
2018-07-31T17:32:34.305Z,39.48
2018-07-31T17:35:02.828Z,39.75
2018-07-31T17:37:31.227Z,39.65
2018-07-31T17:39:59.999Z,38.65
2018-07-31T17:42:28.472Z,38.96
2018-07-31T17:44:57.195Z,38.86
2018-07-31T17:47:25.711Z,38.08
2018-07-31T17:49:54.163Z,37.52
2018-07-31T17:52:22.747Z,37.45
2018-07-31T17:54:51.414Z,37.25
2018-07-31T17:57:19.890Z,36.72
2018-07-31T17:59:48.335Z,36.43
2018-07-31T18:02:16.739Z,35.76
2018-07-31T18:04:45.751Z,35.37
2018-07-31T18:07:14.200Z,35.29
2018-07-31T18:09:42.660Z,34.79
2018-07-31T18:12:11.187Z,34.72
2018-07-31T18:14:39.659Z,34.59
2018-07-31T18:17:08.030Z,34.59
2018-07-31T18:19:36.456Z,34.69
2018-07-31T18:22:05.588Z,34.24
2018-07-31T18:24:34.083Z,34.02
2018-07-31T18:27:02.652Z,33.99
2018-07-31T18:29:31.136Z,33.91
2018-07-31T18:32:00.396Z,33.52
2018-07-31T18:34:29.241Z,33.62
2018-07-31T18:36:57.660Z,33.52
2018-07-31T18:39:26.112Z,33.09
2018-07-31T18:41:54.587Z,33.09
2018-07-31T18:44:23.075Z,33.04
2018-07-31T18:46:51.711Z,32.94
2018-07-31T18:49:20.369Z,32.87
2018-07-31T18:51:49.087Z,32.47
2018-07-31T18:54:17.656Z,32.20
2018-07-31T18:56:46.100Z,31.83
2018-07-31T18:59:14.543Z,31.99
2018-07-31T19:01:43.048Z,32.01
2018-07-31T19:04:11.575Z,31.79
2018-07-31T19:06:40.026Z,31.70
2018-07-31T19:09:12.597Z,31.62
2018-07-31T19:11:42.783Z,31.65
2018-07-31T19:14:11.463Z,31.69
2018-07-31T19:16:39.983Z,31.71
2018-07-31T19:19:08.623Z,31.80
2018-07-31T19:21:37.527Z,31.73
2018-07-31T19:24:05.984Z,31.65
2018-07-31T19:26:34.694Z,31.45
2018-07-31T19:29:03.264Z,31.24
2018-07-31T19:31:31.796Z,31.13
2018-07-31T19:34:00.385Z,30.91
2018-07-31T19:36:29.132Z,31.10
2018-07-31T19:38:57.583Z,30.94
2018-07-31T19:41:26.356Z,30.79
2018-07-31T19:43:54.940Z,30.81
2018-07-31T19:46:23.401Z,30.76
2018-07-31T19:48:52.247Z,30.49
2018-07-31T19:51:20.699Z,30.48
2018-07-31T19:53:49.097Z,30.52
2018-07-31T19:56:17.579Z,30.30
2018-07-31T19:58:46.091Z,30.28
2018-07-31T20:01:14.551Z,30.15
2018-07-31T20:03:43.047Z,29.96
2018-07-31T20:06:11.528Z,30.04
2018-07-31T20:08:40.176Z,29.87
2018-07-31T20:11:08.854Z,29.92
2018-07-31T20:13:37.375Z,29.71
2018-07-31T20:16:06.397Z,29.69
2018-07-31T20:18:35.530Z,29.58
2018-07-31T20:21:04.380Z,29.45
2018-07-31T20:23:32.934Z,29.49
2018-07-31T20:26:01.437Z,29.32
2018-07-31T20:28:29.874Z,29.29
2018-07-31T20:30:58.364Z,29.18
2018-07-31T20:33:26.831Z,29.14
2018-07-31T20:35:55.312Z,29.08
2018-07-31T20:38:23.760Z,28.94
2018-07-31T20:40:52.218Z,28.93
2018-07-31T20:43:21.215Z,28.88
2018-07-31T20:45:49.946Z,28.93
2018-07-31T20:48:18.451Z,28.92
2018-07-31T20:50:46.890Z,29.15
2018-07-31T20:53:45.787Z,29.01
2018-07-31T20:56:14.653Z,28.87
2018-07-31T20:58:43.124Z,28.55
2018-07-31T21:01:11.543Z,28.67
2018-07-31T21:03:40.053Z,28.60
2018-07-31T21:06:08.444Z,28.48
2018-07-31T21:08:36.918Z,28.64
2018-07-31T21:11:05.376Z,28.55
2018-07-31T21:13:33.830Z,28.46
2018-07-31T21:16:02.477Z,28.49
2018-07-31T21:18:30.985Z,28.05
2018-07-31T21:20:59.588Z,28.28
2018-07-31T21:23:28.028Z,28.03
2018-07-31T21:25:56.513Z,27.88
2018-07-31T21:28:26.503Z,27.93
2018-07-31T21:30:54.951Z,27.85
2018-07-31T21:33:23.842Z,27.93
2018-07-31T21:35:52.266Z,28.08
2018-07-31T21:38:21.248Z,28.00
2018-07-31T21:40:49.718Z,28.06
2018-07-31T21:43:18.246Z,28.04
2018-07-31T21:45:46.697Z,27.99
2018-07-31T21:48:15.149Z,27.94
2018-07-31T21:50:43.660Z,27.91
2018-07-31T21:53:12.102Z,27.99
2018-07-31T21:55:40.922Z,27.87
2018-07-31T21:58:09.343Z,27.76
2018-07-31T22:00:42.993Z,27.75
2018-07-31T22:03:11.418Z,27.80
2018-07-31T22:05:39.892Z,27.75
2018-07-31T22:08:08.316Z,27.84
2018-07-31T22:10:36.782Z,27.74
2018-07-31T22:13:05.207Z,27.39
2018-07-31T22:15:33.746Z,27.04
2018-07-31T22:18:02.201Z,27.07
2018-07-31T22:20:30.638Z,27.11
2018-07-31T22:22:59.274Z,27.00
2018-07-31T22:25:27.934Z,26.96
2018-07-31T22:27:56.668Z,26.92
2018-07-31T22:30:25.104Z,26.89
2018-07-31T22:32:54.282Z,26.97
2018-07-31T22:35:22.690Z,27.00
2018-07-31T22:37:51.176Z,27.11
2018-07-31T22:40:19.635Z,27.10
2018-07-31T22:42:48.136Z,27.17
2018-07-31T22:45:17.047Z,26.84
2018-07-31T22:47:45.482Z,26.80
2018-07-31T22:50:13.898Z,26.84
2018-07-31T22:52:42.315Z,27.07
2018-07-31T22:55:10.974Z,27.15
2018-07-31T22:57:39.389Z,26.86
2018-07-31T23:00:07.982Z,27.01
2018-07-31T23:02:38.224Z,26.99
2018-07-31T23:05:06.756Z,26.53
2018-07-31T23:07:35.648Z,26.77
2018-07-31T23:10:04.878Z,27.17
2018-07-31T23:12:34.169Z,27.11
2018-07-31T23:15:03.479Z,27.15
2018-07-31T23:17:32.472Z,27.09
2018-07-31T23:20:03.667Z,26.95
2018-07-31T23:22:45.630Z,26.92
2018-07-31T23:25:14.175Z,26.59
2018-07-31T23:27:42.619Z,26.68
2018-07-31T23:30:11.427Z,26.69
2018-07-31T23:32:40.500Z,26.22
2018-07-31T23:35:09.027Z,26.40
2018-07-31T23:37:38.073Z,26.42
2018-07-31T23:40:07.619Z,26.22
2018-07-31T23:42:36.056Z,26.09
2018-07-31T23:45:05.061Z,26.17
2018-07-31T23:47:33.701Z,26.15
2018-07-31T23:50:02.669Z,26.19
2018-07-31T23:52:31.594Z,26.14
2018-07-31T23:55:00.044Z,26.22
2018-07-31T23:57:28.776Z,26.15
2018-07-31T23:59:57.230Z,26.09
